sensor_id;sensor_type;location;lat;lon;timestamp;P1;durP1;ratioP1;P2;durP2;ratioP2
16440;SDS011;8330;-33.858;151.184;2024-03-02T00:00:10;23.48;;;5.43;;
16440;SDS011;8330;-33.858;151.184;2024-03-02T00:02:41;20.75;;;5.20;;
16440;SDS011;8330;-33.858;151.184;2024-03-02T00:05:13;22.42;;;4.97;;
16440;SDS011;8330;-33.858;151.184;2024-03-02T00:07:45;16.15;;;4.40;;
16440;SDS011;8330;-33.858;151.184;2024-03-02T00:10:22;20.40;;;4.72;;
16440;SDS011;8330;-33.858;151.184;2024-03-02T00:12:57;20.20;;;4.55;;
16440;SDS011;8330;-33.858;151.184;2024-03-02T00:18:18;17.30;;;5.05;;
16440;SDS011;8330;-33.858;151.184;2024-03-02T00:20:53;20.77;;;5.03;;
16440;SDS011;8330;-33.858;151.184;2024-03-02T00:23:27;19.65;;;5.15;;
16440;SDS011;8330;-33.858;151.184;2024-03-02T00:25:59;18.02;;;4.60;;
16440;SDS011;8330;-33.858;151.184;2024-03-02T00:28:31;19.55;;;4.70;;
16440;SDS011;8330;-33.858;151.184;2024-03-02T00:31:04;19.40;;;4.97;;
16440;SDS011;8330;-33.858;151.184;2024-03-02T00:33:39;22.08;;;5.18;;
16440;SDS011;8330;-33.858;151.184;2024-03-02T00:36:11;19.90;;;4.22;;
16440;SDS011;8330;-33.858;151.184;2024-03-02T00:38:44;20.88;;;4.82;;
16440;SDS011;8330;-33.858;151.184;2024-03-02T00:41:19;19.73;;;4.70;;
16440;SDS011;8330;-33.858;151.184;2024-03-02T00:44:04;20.08;;;4.30;;
16440;SDS011;8330;-33.858;151.184;2024-03-02T00:46:37;18.77;;;4.47;;
16440;SDS011;8330;-33.858;151.184;2024-03-02T00:49:11;17.10;;;4.35;;
16440;SDS011;8330;-33.858;151.184;2024-03-02T00:51:48;18.15;;;4.03;;
16440;SDS011;8330;-33.858;151.184;2024-03-02T00:54:20;16.02;;;4.32;;
16440;SDS011;8330;-33.858;151.184;2024-03-02T00:56:51;18.92;;;4.47;;
16440;SDS011;8330;-33.858;151.184;2024-03-02T00:59:25;25.20;;;4.70;;
16440;SDS011;8330;-33.858;151.184;2024-03-02T01:01:56;18.35;;;4.38;;
16440;SDS011;8330;-33.858;151.184;2024-03-02T01:04:26;10.73;;;3.63;;
16440;SDS011;8330;-33.858;151.184;2024-03-02T01:06:57;15.32;;;4.03;;
16440;SDS011;8330;-33.858;151.184;2024-03-02T01:09:28;21.08;;;6.55;;
16440;SDS011;8330;-33.858;151.184;2024-03-02T01:11:59;16.23;;;4.40;;
16440;SDS011;8330;-33.858;151.184;2024-03-02T01:14:31;16.55;;;3.38;;
16440;SDS011;8330;-33.858;151.184;2024-03-02T01:17:03;14.35;;;3.50;;
16440;SDS011;8330;-33.858;151.184;2024-03-02T01:19:34;16.73;;;3.90;;
16440;SDS011;8330;-33.858;151.184;2024-03-02T01:22:05;17.20;;;3.90;;
16440;SDS011;8330;-33.858;151.184;2024-03-02T01:24:36;19.67;;;4.00;;
16440;SDS011;8330;-33.858;151.184;2024-03-02T01:27:07;17.58;;;3.72;;
16440;SDS011;8330;-33.858;151.184;2024-03-02T01:29:40;17.55;;;4.00;;
16440;SDS011;8330;-33.858;151.184;2024-03-02T01:32:10;17.58;;;3.75;;
16440;SDS011;8330;-33.858;151.184;2024-03-02T01:34:42;15.73;;;4.10;;
16440;SDS011;8330;-33.858;151.184;2024-03-02T01:37:13;14.88;;;3.70;;
16440;SDS011;8330;-33.858;151.184;2024-03-02T01:39:47;20.63;;;4.55;;
16440;SDS011;8330;-33.858;151.184;2024-03-02T01:42:18;18.40;;;4.55;;
16440;SDS011;8330;-33.858;151.184;2024-03-02T01:44:51;15.93;;;4.05;;
16440;SDS011;8330;-33.858;151.184;2024-03-02T01:47:21;16.20;;;3.92;;
16440;SDS011;8330;-33.858;151.184;2024-03-02T01:49:52;16.88;;;4.15;;
16440;SDS011;8330;-33.858;151.184;2024-03-02T01:52:23;14.93;;;3.95;;
16440;SDS011;8330;-33.858;151.184;2024-03-02T01:54:54;15.45;;;4.07;;
16440;SDS011;8330;-33.858;151.184;2024-03-02T01:57:26;13.93;;;4.03;;
16440;SDS011;8330;-33.858;151.184;2024-03-02T01:59:59;16.48;;;3.90;;
16440;SDS011;8330;-33.858;151.184;2024-03-02T02:02:31;16.10;;;3.85;;
16440;SDS011;8330;-33.858;151.184;2024-03-02T02:05:02;19.70;;;3.55;;
16440;SDS011;8330;-33.858;151.184;2024-03-02T02:07:33;20.20;;;4.32;;
16440;SDS011;8330;-33.858;151.184;2024-03-02T02:10:05;17.85;;;3.88;;
16440;SDS011;8330;-33.858;151.184;2024-03-02T02:12:36;16.52;;;3.78;;
16440;SDS011;8330;-33.858;151.184;2024-03-02T02:18:07;14.60;;;3.88;;
16440;SDS011;8330;-33.858;151.184;2024-03-02T02:20:38;14.48;;;3.70;;
16440;SDS011;8330;-33.858;151.184;2024-03-02T02:23:10;16.73;;;3.75;;
16440;SDS011;8330;-33.858;151.184;2024-03-02T02:25:41;22.33;;;4.43;;
16440;SDS011;8330;-33.858;151.184;2024-03-02T02:28:12;15.88;;;4.20;;
16440;SDS011;8330;-33.858;151.184;2024-03-02T02:30:43;18.20;;;4.30;;
16440;SDS011;8330;-33.858;151.184;2024-03-02T02:33:13;15.10;;;3.90;;
16440;SDS011;8330;-33.858;151.184;2024-03-02T02:35:47;14.57;;;4.10;;
16440;SDS011;8330;-33.858;151.184;2024-03-02T02:38:20;10.07;;;3.47;;
16440;SDS011;8330;-33.858;151.184;2024-03-02T02:40:51;14.05;;;3.97;;
16440;SDS011;8330;-33.858;151.184;2024-03-02T02:43:24;14.75;;;4.43;;
16440;SDS011;8330;-33.858;151.184;2024-03-02T02:45:55;17.17;;;4.50;;
16440;SDS011;8330;-33.858;151.184;2024-03-02T02:48:26;15.75;;;4.85;;
16440;SDS011;8330;-33.858;151.184;2024-03-02T02:50:57;15.65;;;4.22;;
16440;SDS011;8330;-33.858;151.184;2024-03-02T02:53:30;13.48;;;4.40;;
16440;SDS011;8330;-33.858;151.184;2024-03-02T02:56:01;12.18;;;4.45;;
16440;SDS011;8330;-33.858;151.184;2024-03-02T02:58:32;17.50;;;4.72;;
16440;SDS011;8330;-33.858;151.184;2024-03-02T03:01:03;18.20;;;6.15;;
16440;SDS011;8330;-33.858;151.184;2024-03-02T03:03:34;14.52;;;5.13;;
16440;SDS011;8330;-33.858;151.184;2024-03-02T03:06:05;11.90;;;4.40;;
16440;SDS011;8330;-33.858;151.184;2024-03-02T03:08:38;16.15;;;5.97;;
16440;SDS011;8330;-33.858;151.184;2024-03-02T03:11:11;16.15;;;4.90;;
16440;SDS011;8330;-33.858;151.184;2024-03-02T03:13:42;15.40;;;5.00;;
16440;SDS011;8330;-33.858;151.184;2024-03-02T03:16:13;17.40;;;5.07;;
16440;SDS011;8330;-33.858;151.184;2024-03-02T03:18:44;13.23;;;4.95;;
16440;SDS011;8330;-33.858;151.184;2024-03-02T03:21:16;14.90;;;4.85;;
16440;SDS011;8330;-33.858;151.184;2024-03-02T03:23:49;16.38;;;4.80;;
16440;SDS011;8330;-33.858;151.184;2024-03-02T03:26:20;14.23;;;4.57;;
16440;SDS011;8330;-33.858;151.184;2024-03-02T03:28:50;14.70;;;5.13;;
16440;SDS011;8330;-33.858;151.184;2024-03-02T03:31:21;13.25;;;4.68;;
16440;SDS011;8330;-33.858;151.184;2024-03-02T03:33:52;12.30;;;4.53;;
16440;SDS011;8330;-33.858;151.184;2024-03-02T03:36:23;10.50;;;4.10;;
16440;SDS011;8330;-33.858;151.184;2024-03-02T03:38:56;13.07;;;4.88;;
16440;SDS011;8330;-33.858;151.184;2024-03-02T03:41:29;14.07;;;4.72;;
16440;SDS011;8330;-33.858;151.184;2024-03-02T03:44:00;14.45;;;4.65;;
16440;SDS011;8330;-33.858;151.184;2024-03-02T03:46:31;12.93;;;4.20;;
16440;SDS011;8330;-33.858;151.184;2024-03-02T03:49:02;12.25;;;4.18;;
16440;SDS011;8330;-33.858;151.184;2024-03-02T03:51:33;13.90;;;4.30;;
16440;SDS011;8330;-33.858;151.184;2024-03-02T03:54:06;12.90;;;4.00;;
16440;SDS011;8330;-33.858;151.184;2024-03-02T03:56:37;14.40;;;4.78;;
16440;SDS011;8330;-33.858;151.184;2024-03-02T03:59:08;14.85;;;5.15;;
16440;SDS011;8330;-33.858;151.184;2024-03-02T04:01:39;14.55;;;4.65;;
16440;SDS011;8330;-33.858;151.184;2024-03-02T04:04:10;12.30;;;4.78;;
16440;SDS011;8330;-33.858;151.184;2024-03-02T04:06:40;12.80;;;4.40;;
16440;SDS011;8330;-33.858;151.184;2024-03-02T04:09:13;12.07;;;4.20;;
16440;SDS011;8330;-33.858;151.184;2024-03-02T04:11:44;11.23;;;3.70;;
16440;SDS011;8330;-33.858;151.184;2024-03-02T04:14:15;14.60;;;4.03;;
16440;SDS011;8330;-33.858;151.184;2024-03-02T04:16:46;14.20;;;4.25;;
16440;SDS011;8330;-33.858;151.184;2024-03-02T04:19:17;16.13;;;4.30;;
16440;SDS011;8330;-33.858;151.184;2024-03-02T04:21:48;13.50;;;4.00;;
16440;SDS011;8330;-33.858;151.184;2024-03-02T04:24:20;14.27;;;4.13;;
16440;SDS011;8330;-33.858;151.184;2024-03-02T04:26:51;10.80;;;3.65;;
16440;SDS011;8330;-33.858;151.184;2024-03-02T04:29:22;12.50;;;3.65;;
16440;SDS011;8330;-33.858;151.184;2024-03-02T04:31:52;14.65;;;3.92;;
16440;SDS011;8330;-33.858;151.184;2024-03-02T04:34:23;13.82;;;3.60;;
16440;SDS011;8330;-33.858;151.184;2024-03-02T04:36:54;12.40;;;3.65;;
16440;SDS011;8330;-33.858;151.184;2024-03-02T04:39:27;11.73;;;3.92;;
16440;SDS011;8330;-33.858;151.184;2024-03-02T04:41:58;11.85;;;3.35;;
16440;SDS011;8330;-33.858;151.184;2024-03-02T04:44:32;13.43;;;3.58;;
16440;SDS011;8330;-33.858;151.184;2024-03-02T04:47:03;11.98;;;4.00;;
16440;SDS011;8330;-33.858;151.184;2024-03-02T04:49:34;13.93;;;3.33;;
16440;SDS011;8330;-33.858;151.184;2024-03-02T04:52:05;13.10;;;3.60;;
16440;SDS011;8330;-33.858;151.184;2024-03-02T04:54:37;11.40;;;3.53;;
16440;SDS011;8330;-33.858;151.184;2024-03-02T04:57:20;11.38;;;3.50;;
16440;SDS011;8330;-33.858;151.184;2024-03-02T04:59:51;15.52;;;3.40;;
16440;SDS011;8330;-33.858;151.184;2024-03-02T05:02:22;14.02;;;3.78;;
16440;SDS011;8330;-33.858;151.184;2024-03-02T05:04:53;13.90;;;3.47;;
16440;SDS011;8330;-33.858;151.184;2024-03-02T05:07:24;15.00;;;3.90;;
16440;SDS011;8330;-33.858;151.184;2024-03-02T05:09:56;14.00;;;3.47;;
16440;SDS011;8330;-33.858;151.184;2024-03-02T05:12:27;14.10;;;3.88;;
16440;SDS011;8330;-33.858;151.184;2024-03-02T05:15:21;14.07;;;3.28;;
16440;SDS011;8330;-33.858;151.184;2024-03-02T05:17:52;14.95;;;3.72;;
16440;SDS011;8330;-33.858;151.184;2024-03-02T05:20:23;16.58;;;4.30;;
16440;SDS011;8330;-33.858;151.184;2024-03-02T05:22:54;13.55;;;3.83;;
16440;SDS011;8330;-33.858;151.184;2024-03-02T05:25:26;9.30;;;3.20;;
16440;SDS011;8330;-33.858;151.184;2024-03-02T05:27:58;17.10;;;3.58;;
16440;SDS011;8330;-33.858;151.184;2024-03-02T05:30:29;12.65;;;3.55;;
16440;SDS011;8330;-33.858;151.184;2024-03-02T05:32:59;13.90;;;3.47;;
16440;SDS011;8330;-33.858;151.184;2024-03-02T05:35:30;16.38;;;3.42;;
16440;SDS011;8330;-33.858;151.184;2024-03-02T05:38:01;10.32;;;2.85;;
16440;SDS011;8330;-33.858;151.184;2024-03-02T05:40:34;12.98;;;3.15;;
16440;SDS011;8330;-33.858;151.184;2024-03-02T05:43:04;13.05;;;3.00;;
16440;SDS011;8330;-33.858;151.184;2024-03-02T05:45:35;13.55;;;3.33;;
16440;SDS011;8330;-33.858;151.184;2024-03-02T05:48:07;17.73;;;3.83;;
16440;SDS011;8330;-33.858;151.184;2024-03-02T05:50:38;15.48;;;3.55;;
16440;SDS011;8330;-33.858;151.184;2024-03-02T05:53:08;12.15;;;2.95;;
16440;SDS011;8330;-33.858;151.184;2024-03-02T05:55:43;13.75;;;3.33;;
16440;SDS011;8330;-33.858;151.184;2024-03-02T05:58:19;15.15;;;3.47;;
16440;SDS011;8330;-33.858;151.184;2024-03-02T06:01:00;12.57;;;3.05;;
16440;SDS011;8330;-33.858;151.184;2024-03-02T06:03:30;11.95;;;2.90;;
16440;SDS011;8330;-33.858;151.184;2024-03-02T06:06:01;10.40;;;3.30;;
16440;SDS011;8330;-33.858;151.184;2024-03-02T06:08:32;9.50;;;2.95;;
16440;SDS011;8330;-33.858;151.184;2024-03-02T06:11:05;11.10;;;3.15;;
16440;SDS011;8330;-33.858;151.184;2024-03-02T06:13:36;12.48;;;3.15;;
16440;SDS011;8330;-33.858;151.184;2024-03-02T06:16:07;13.35;;;3.60;;
16440;SDS011;8330;-33.858;151.184;2024-03-02T06:18:37;11.68;;;3.42;;
16440;SDS011;8330;-33.858;151.184;2024-03-02T06:21:08;10.93;;;3.22;;
16440;SDS011;8330;-33.858;151.184;2024-03-02T06:23:39;11.10;;;3.28;;
16440;SDS011;8330;-33.858;151.184;2024-03-02T06:26:11;13.82;;;3.92;;
16440;SDS011;8330;-33.858;151.184;2024-03-02T06:28:42;11.60;;;3.58;;
16440;SDS011;8330;-33.858;151.184;2024-03-02T06:31:13;14.65;;;3.35;;
16440;SDS011;8330;-33.858;151.184;2024-03-02T06:33:44;12.43;;;2.97;;
16440;SDS011;8330;-33.858;151.184;2024-03-02T06:36:15;13.43;;;3.45;;
16440;SDS011;8330;-33.858;151.184;2024-03-02T06:38:46;10.93;;;2.60;;
16440;SDS011;8330;-33.858;151.184;2024-03-02T06:41:19;12.30;;;3.40;;
16440;SDS011;8330;-33.858;151.184;2024-03-02T06:43:50;13.13;;;3.70;;
16440;SDS011;8330;-33.858;151.184;2024-03-02T06:46:25;13.70;;;3.80;;
16440;SDS011;8330;-33.858;151.184;2024-03-02T06:48:56;14.95;;;3.38;;
16440;SDS011;8330;-33.858;151.184;2024-03-02T06:51:28;19.35;;;8.30;;
16440;SDS011;8330;-33.858;151.184;2024-03-02T06:53:59;11.95;;;2.95;;
16440;SDS011;8330;-33.858;151.184;2024-03-02T06:56:31;9.65;;;2.80;;
16440;SDS011;8330;-33.858;151.184;2024-03-02T06:59:02;11.48;;;2.92;;
16440;SDS011;8330;-33.858;151.184;2024-03-02T07:01:34;9.73;;;3.03;;
16440;SDS011;8330;-33.858;151.184;2024-03-02T07:04:04;12.00;;;3.17;;
16440;SDS011;8330;-33.858;151.184;2024-03-02T07:06:35;15.23;;;3.92;;
16440;SDS011;8330;-33.858;151.184;2024-03-02T07:09:06;11.48;;;2.75;;
16440;SDS011;8330;-33.858;151.184;2024-03-02T07:11:39;10.75;;;2.60;;
16440;SDS011;8330;-33.858;151.184;2024-03-02T07:14:11;11.73;;;2.42;;
16440;SDS011;8330;-33.858;151.184;2024-03-02T07:16:42;9.75;;;2.80;;
16440;SDS011;8330;-33.858;151.184;2024-03-02T07:19:13;11.18;;;3.35;;
16440;SDS011;8330;-33.858;151.184;2024-03-02T07:21:44;10.32;;;2.63;;
16440;SDS011;8330;-33.858;151.184;2024-03-02T07:24:15;9.95;;;2.75;;
16440;SDS011;8330;-33.858;151.184;2024-03-02T07:26:50;11.98;;;2.88;;
16440;SDS011;8330;-33.858;151.184;2024-03-02T07:29:21;12.23;;;2.72;;
16440;SDS011;8330;-33.858;151.184;2024-03-02T07:31:52;9.75;;;2.88;;
16440;SDS011;8330;-33.858;151.184;2024-03-02T07:34:25;8.73;;;2.55;;
16440;SDS011;8330;-33.858;151.184;2024-03-02T07:36:56;8.18;;;2.67;;
16440;SDS011;8330;-33.858;151.184;2024-03-02T07:39:27;8.10;;;2.40;;
16440;SDS011;8330;-33.858;151.184;2024-03-02T07:42:00;12.40;;;2.63;;
16440;SDS011;8330;-33.858;151.184;2024-03-02T07:44:31;12.20;;;2.70;;
16440;SDS011;8330;-33.858;151.184;2024-03-02T07:47:02;8.30;;;2.55;;
16440;SDS011;8330;-33.858;151.184;2024-03-02T07:49:33;9.80;;;2.92;;
16440;SDS011;8330;-33.858;151.184;2024-03-02T07:52:04;10.00;;;2.60;;
16440;SDS011;8330;-33.858;151.184;2024-03-02T07:54:36;8.75;;;2.40;;
16440;SDS011;8330;-33.858;151.184;2024-03-02T07:57:10;9.05;;;2.22;;
16440;SDS011;8330;-33.858;151.184;2024-03-02T07:59:41;7.63;;;2.13;;
16440;SDS011;8330;-33.858;151.184;2024-03-02T08:02:13;8.55;;;2.40;;
16440;SDS011;8330;-33.858;151.184;2024-03-02T08:04:44;10.98;;;2.20;;
16440;SDS011;8330;-33.858;151.184;2024-03-02T08:07:14;9.18;;;2.53;;
16440;SDS011;8330;-33.858;151.184;2024-03-02T08:09:45;9.20;;;2.50;;
16440;SDS011;8330;-33.858;151.184;2024-03-02T08:12:18;10.73;;;2.15;;
16440;SDS011;8330;-33.858;151.184;2024-03-02T08:14:49;9.07;;;2.20;;
16440;SDS011;8330;-33.858;151.184;2024-03-02T08:17:23;8.23;;;2.53;;
16440;SDS011;8330;-33.858;151.184;2024-03-02T08:19:54;11.80;;;2.65;;
16440;SDS011;8330;-33.858;151.184;2024-03-02T08:22:25;8.05;;;2.42;;
16440;SDS011;8330;-33.858;151.184;2024-03-02T08:24:55;9.82;;;3.15;;
16440;SDS011;8330;-33.858;151.184;2024-03-02T08:27:28;11.85;;;2.50;;
16440;SDS011;8330;-33.858;151.184;2024-03-02T08:29:59;11.57;;;2.83;;
16440;SDS011;8330;-33.858;151.184;2024-03-02T08:32:32;10.65;;;2.80;;
16440;SDS011;8330;-33.858;151.184;2024-03-02T08:35:04;10.85;;;3.05;;
16440;SDS011;8330;-33.858;151.184;2024-03-02T08:37:35;12.57;;;3.40;;
16440;SDS011;8330;-33.858;151.184;2024-03-02T08:40:08;10.95;;;3.38;;
16440;SDS011;8330;-33.858;151.184;2024-03-02T08:42:41;10.60;;;2.92;;
16440;SDS011;8330;-33.858;151.184;2024-03-02T08:45:12;9.85;;;2.75;;
16440;SDS011;8330;-33.858;151.184;2024-03-02T08:47:46;8.80;;;2.00;;
16440;SDS011;8330;-33.858;151.184;2024-03-02T08:50:17;8.38;;;2.50;;
16440;SDS011;8330;-33.858;151.184;2024-03-02T08:52:48;12.70;;;2.72;;
16440;SDS011;8330;-33.858;151.184;2024-03-02T08:55:18;11.85;;;3.00;;
16440;SDS011;8330;-33.858;151.184;2024-03-02T08:57:51;10.13;;;2.65;;
16440;SDS011;8330;-33.858;151.184;2024-03-02T09:00:22;11.80;;;2.97;;
16440;SDS011;8330;-33.858;151.184;2024-03-02T09:02:54;10.40;;;3.10;;
16440;SDS011;8330;-33.858;151.184;2024-03-02T09:05:24;8.80;;;2.88;;
16440;SDS011;8330;-33.858;151.184;2024-03-02T09:07:55;11.85;;;2.75;;
16440;SDS011;8330;-33.858;151.184;2024-03-02T09:10:26;11.57;;;3.13;;
16440;SDS011;8330;-33.858;151.184;2024-03-02T09:13:00;10.82;;;2.60;;
16440;SDS011;8330;-33.858;151.184;2024-03-02T09:15:31;11.23;;;2.97;;
16440;SDS011;8330;-33.858;151.184;2024-03-02T09:18:03;9.60;;;2.40;;
16440;SDS011;8330;-33.858;151.184;2024-03-02T09:20:35;11.15;;;2.53;;
16440;SDS011;8330;-33.858;151.184;2024-03-02T09:23:05;9.90;;;2.80;;
16440;SDS011;8330;-33.858;151.184;2024-03-02T09:25:36;12.35;;;2.90;;
16440;SDS011;8330;-33.858;151.184;2024-03-02T09:28:09;10.75;;;2.85;;
16440;SDS011;8330;-33.858;151.184;2024-03-02T09:30:40;12.82;;;3.28;;
16440;SDS011;8330;-33.858;151.184;2024-03-02T09:33:11;14.35;;;4.40;;
16440;SDS011;8330;-33.858;151.184;2024-03-02T09:35:42;12.23;;;3.30;;
16440;SDS011;8330;-33.858;151.184;2024-03-02T09:38:13;13.90;;;3.15;;
16440;SDS011;8330;-33.858;151.184;2024-03-02T09:40:43;9.18;;;2.90;;
16440;SDS011;8330;-33.858;151.184;2024-03-02T09:43:16;10.20;;;3.00;;
16440;SDS011;8330;-33.858;151.184;2024-03-02T09:45:47;13.63;;;2.97;;
16440;SDS011;8330;-33.858;151.184;2024-03-02T09:48:19;14.80;;;2.85;;
16440;SDS011;8330;-33.858;151.184;2024-03-02T09:50:50;10.52;;;2.63;;
16440;SDS011;8330;-33.858;151.184;2024-03-02T09:53:21;11.88;;;2.97;;
16440;SDS011;8330;-33.858;151.184;2024-03-02T09:55:53;14.70;;;3.13;;
16440;SDS011;8330;-33.858;151.184;2024-03-02T09:58:26;9.38;;;2.60;;
16440;SDS011;8330;-33.858;151.184;2024-03-02T10:00:56;16.35;;;3.42;;
16440;SDS011;8330;-33.858;151.184;2024-03-02T10:03:27;13.57;;;2.78;;
16440;SDS011;8330;-33.858;151.184;2024-03-02T10:08:51;9.93;;;2.65;;
16440;SDS011;8330;-33.858;151.184;2024-03-02T10:11:27;9.15;;;3.08;;
16440;SDS011;8330;-33.858;151.184;2024-03-02T10:14:09;12.90;;;3.50;;
16440;SDS011;8330;-33.858;151.184;2024-03-02T10:16:40;9.32;;;3.75;;
16440;SDS011;8330;-33.858;151.184;2024-03-02T10:19:16;12.50;;;3.65;;
16440;SDS011;8330;-33.858;151.184;2024-03-02T10:21:48;10.52;;;2.70;;
16440;SDS011;8330;-33.858;151.184;2024-03-02T10:24:19;8.95;;;2.70;;
16440;SDS011;8330;-33.858;151.184;2024-03-02T10:26:51;15.48;;;2.58;;
16440;SDS011;8330;-33.858;151.184;2024-03-02T10:29:24;11.25;;;2.50;;
16440;SDS011;8330;-33.858;151.184;2024-03-02T10:31:58;6.82;;;2.50;;
16440;SDS011;8330;-33.858;151.184;2024-03-02T10:34:32;13.05;;;3.15;;
16440;SDS011;8330;-33.858;151.184;2024-03-02T10:37:04;9.32;;;2.70;;
16440;SDS011;8330;-33.858;151.184;2024-03-02T10:39:36;10.05;;;2.70;;
16440;SDS011;8330;-33.858;151.184;2024-03-02T10:42:07;9.43;;;2.45;;
16440;SDS011;8330;-33.858;151.184;2024-03-02T10:44:40;10.35;;;2.80;;
16440;SDS011;8330;-33.858;151.184;2024-03-02T10:47:12;8.30;;;2.47;;
16440;SDS011;8330;-33.858;151.184;2024-03-02T10:49:44;10.15;;;2.90;;
16440;SDS011;8330;-33.858;151.184;2024-03-02T10:52:18;8.75;;;2.80;;
16440;SDS011;8330;-33.858;151.184;2024-03-02T10:54:50;10.35;;;2.85;;
16440;SDS011;8330;-33.858;151.184;2024-03-02T10:57:21;8.85;;;2.33;;
16440;SDS011;8330;-33.858;151.184;2024-03-02T10:59:56;8.45;;;2.80;;
16440;SDS011;8330;-33.858;151.184;2024-03-02T11:02:30;8.55;;;3.13;;
16440;SDS011;8330;-33.858;151.184;2024-03-02T11:05:04;10.45;;;3.10;;
16440;SDS011;8330;-33.858;151.184;2024-03-02T11:07:38;10.30;;;2.58;;
16440;SDS011;8330;-33.858;151.184;2024-03-02T11:10:09;9.25;;;2.78;;
16440;SDS011;8330;-33.858;151.184;2024-03-02T11:12:43;12.85;;;2.58;;
16440;SDS011;8330;-33.858;151.184;2024-03-02T11:15:22;9.15;;;2.13;;
16440;SDS011;8330;-33.858;151.184;2024-03-02T11:17:56;7.88;;;2.10;;
16440;SDS011;8330;-33.858;151.184;2024-03-02T11:20:27;9.02;;;2.17;;
16440;SDS011;8330;-33.858;151.184;2024-03-02T11:22:58;12.90;;;3.25;;
16440;SDS011;8330;-33.858;151.184;2024-03-02T11:25:35;13.07;;;3.53;;
16440;SDS011;8330;-33.858;151.184;2024-03-02T11:28:06;8.70;;;2.72;;
16440;SDS011;8330;-33.858;151.184;2024-03-02T11:33:27;7.97;;;2.40;;
16440;SDS011;8330;-33.858;151.184;2024-03-02T11:35:57;11.07;;;2.80;;
16440;SDS011;8330;-33.858;151.184;2024-03-02T11:38:32;11.50;;;2.90;;
16440;SDS011;8330;-33.858;151.184;2024-03-02T11:41:06;7.20;;;2.60;;
16440;SDS011;8330;-33.858;151.184;2024-03-02T11:43:38;9.88;;;2.92;;
16440;SDS011;8330;-33.858;151.184;2024-03-02T11:46:12;11.63;;;3.50;;
16440;SDS011;8330;-33.858;151.184;2024-03-02T11:48:43;10.70;;;3.08;;
16440;SDS011;8330;-33.858;151.184;2024-03-02T11:51:15;12.07;;;3.85;;
16440;SDS011;8330;-33.858;151.184;2024-03-02T11:53:46;12.63;;;4.30;;
16440;SDS011;8330;-33.858;151.184;2024-03-02T11:56:19;12.85;;;4.70;;
16440;SDS011;8330;-33.858;151.184;2024-03-02T11:58:50;9.30;;;3.83;;
16440;SDS011;8330;-33.858;151.184;2024-03-02T12:01:26;10.25;;;3.45;;
16440;SDS011;8330;-33.858;151.184;2024-03-02T12:03:58;9.93;;;2.65;;
16440;SDS011;8330;-33.858;151.184;2024-03-02T12:06:29;11.43;;;2.35;;
16440;SDS011;8330;-33.858;151.184;2024-03-02T12:09:00;9.27;;;2.25;;
16440;SDS011;8330;-33.858;151.184;2024-03-02T12:11:31;7.00;;;2.20;;
16440;SDS011;8330;-33.858;151.184;2024-03-02T12:14:01;12.52;;;2.80;;
16440;SDS011;8330;-33.858;151.184;2024-03-02T12:16:34;10.95;;;2.38;;
16440;SDS011;8330;-33.858;151.184;2024-03-02T12:19:06;9.88;;;2.28;;
16440;SDS011;8330;-33.858;151.184;2024-03-02T12:21:36;13.35;;;2.20;;
16440;SDS011;8330;-33.858;151.184;2024-03-02T12:24:08;9.02;;;2.20;;
16440;SDS011;8330;-33.858;151.184;2024-03-02T12:26:39;8.13;;;2.42;;
16440;SDS011;8330;-33.858;151.184;2024-03-02T12:29:10;9.10;;;2.20;;
16440;SDS011;8330;-33.858;151.184;2024-03-02T12:31:44;11.95;;;1.77;;
16440;SDS011;8330;-33.858;151.184;2024-03-02T12:34:16;10.77;;;2.58;;
16440;SDS011;8330;-33.858;151.184;2024-03-02T12:36:47;9.63;;;2.13;;
16440;SDS011;8330;-33.858;151.184;2024-03-02T12:39:19;10.10;;;2.20;;
16440;SDS011;8330;-33.858;151.184;2024-03-02T12:41:50;7.85;;;2.40;;
16440;SDS011;8330;-33.858;151.184;2024-03-02T12:44:21;9.13;;;2.05;;
16440;SDS011;8330;-33.858;151.184;2024-03-02T12:46:54;8.13;;;2.10;;
16440;SDS011;8330;-33.858;151.184;2024-03-02T12:49:24;8.63;;;2.08;;
16440;SDS011;8330;-33.858;151.184;2024-03-02T12:51:56;8.65;;;2.30;;
16440;SDS011;8330;-33.858;151.184;2024-03-02T12:54:28;8.13;;;2.10;;
16440;SDS011;8330;-33.858;151.184;2024-03-02T12:56:59;9.02;;;2.03;;
16440;SDS011;8330;-33.858;151.184;2024-03-02T12:59:31;8.55;;;1.95;;
16440;SDS011;8330;-33.858;151.184;2024-03-02T13:02:06;8.55;;;2.42;;
16440;SDS011;8330;-33.858;151.184;2024-03-02T13:04:51;7.60;;;1.83;;
16440;SDS011;8330;-33.858;151.184;2024-03-02T13:07:22;9.70;;;2.03;;
16440;SDS011;8330;-33.858;151.184;2024-03-02T13:09:54;8.30;;;1.92;;
16440;SDS011;8330;-33.858;151.184;2024-03-02T13:12:25;8.55;;;2.00;;
16440;SDS011;8330;-33.858;151.184;2024-03-02T13:14:57;6.88;;;2.10;;
16440;SDS011;8330;-33.858;151.184;2024-03-02T13:17:30;8.85;;;2.13;;
16440;SDS011;8330;-33.858;151.184;2024-03-02T13:20:03;7.82;;;2.00;;
16440;SDS011;8330;-33.858;151.184;2024-03-02T13:22:36;7.93;;;1.83;;
16440;SDS011;8330;-33.858;151.184;2024-03-02T13:25:07;6.05;;;1.70;;
16440;SDS011;8330;-33.858;151.184;2024-03-02T13:27:38;8.48;;;2.15;;
16440;SDS011;8330;-33.858;151.184;2024-03-02T13:30:09;9.35;;;1.95;;
16440;SDS011;8330;-33.858;151.184;2024-03-02T13:32:42;7.78;;;1.83;;
16440;SDS011;8330;-33.858;151.184;2024-03-02T13:35:13;7.45;;;1.92;;
16440;SDS011;8330;-33.858;151.184;2024-03-02T13:37:44;10.25;;;1.90;;
16440;SDS011;8330;-33.858;151.184;2024-03-02T13:40:16;9.43;;;2.35;;
16440;SDS011;8330;-33.858;151.184;2024-03-02T13:42:47;7.80;;;2.10;;
16440;SDS011;8330;-33.858;151.184;2024-03-02T13:45:20;7.22;;;1.70;;
16440;SDS011;8330;-33.858;151.184;2024-03-02T13:47:52;8.60;;;1.88;;
16440;SDS011;8330;-33.858;151.184;2024-03-02T13:50:23;9.00;;;2.15;;
16440;SDS011;8330;-33.858;151.184;2024-03-02T13:52:55;11.15;;;2.17;;
16440;SDS011;8330;-33.858;151.184;2024-03-02T13:55:26;7.53;;;1.80;;
16440;SDS011;8330;-33.858;151.184;2024-03-02T13:57:57;9.35;;;2.17;;
16440;SDS011;8330;-33.858;151.184;2024-03-02T14:00:28;10.23;;;2.40;;
16440;SDS011;8330;-33.858;151.184;2024-03-02T14:03:01;9.15;;;2.05;;
16440;SDS011;8330;-33.858;151.184;2024-03-02T14:05:33;13.68;;;2.30;;
16440;SDS011;8330;-33.858;151.184;2024-03-02T14:08:03;7.03;;;1.70;;
16440;SDS011;8330;-33.858;151.184;2024-03-02T14:10:35;9.95;;;2.00;;
16440;SDS011;8330;-33.858;151.184;2024-03-02T14:13:05;14.05;;;2.30;;
16440;SDS011;8330;-33.858;151.184;2024-03-02T14:15:36;7.35;;;2.00;;
16440;SDS011;8330;-33.858;151.184;2024-03-02T14:18:09;7.53;;;2.40;;
16440;SDS011;8330;-33.858;151.184;2024-03-02T14:20:40;11.23;;;2.60;;
16440;SDS011;8330;-33.858;151.184;2024-03-02T14:23:18;8.35;;;2.20;;
16440;SDS011;8330;-33.858;151.184;2024-03-02T14:25:49;10.18;;;2.05;;
16440;SDS011;8330;-33.858;151.184;2024-03-02T14:28:19;9.52;;;2.10;;
16440;SDS011;8330;-33.858;151.184;2024-03-02T14:30:50;9.68;;;2.33;;
16440;SDS011;8330;-33.858;151.184;2024-03-02T14:33:23;7.85;;;1.80;;
16440;SDS011;8330;-33.858;151.184;2024-03-02T14:35:54;8.45;;;1.70;;
16440;SDS011;8330;-33.858;151.184;2024-03-02T14:38:25;7.82;;;2.05;;
16440;SDS011;8330;-33.858;151.184;2024-03-02T14:40:55;7.40;;;2.03;;
16440;SDS011;8330;-33.858;151.184;2024-03-02T14:43:26;7.30;;;2.10;;
16440;SDS011;8330;-33.858;151.184;2024-03-02T14:45:57;8.00;;;2.03;;
16440;SDS011;8330;-33.858;151.184;2024-03-02T14:48:31;7.97;;;2.10;;
16440;SDS011;8330;-33.858;151.184;2024-03-02T14:51:01;10.38;;;2.03;;